Chernyakhovsk, Russia
Current Conditions -  °F | °C
As of 2:30 PM on Friday 24 Oct 2014 (Local Time) from UMKK Reporting Station
Clear Clear  
Wind Chill: 34°   Ceiling: Unl
Heat Index: 41°   Visibility: 6mi
Dew Point: 12°   Wind: 13mph
Humidity: 31%   Direction: 170°S
Pressure: 30.39"   Gusts: NA
Location:  54.63°N, 21.81°E
Report Text: UMKK 241230Z 17006MPS 130V200 CAVOK 05/M11 Q1029 R24/CLRD70NOSIG RMK QFE771/1028
Loading
Personal Weather Stations






























Interactive Weather Map
Tropical Storm Tracking
New forecast layout! Learn more

10-Day Weather Forecast

Advertisements
Track Severe Weather on mobile